createdAt,value
2023-04-15T00:02:14.651Z,3.69
2023-04-15T00:07:16.408Z,3.67
2023-04-15T00:12:22.423Z,3.57
2023-04-15T00:17:26.926Z,3.53
2023-04-15T00:22:30.668Z,3.53
2023-04-15T00:27:33.602Z,3.55
2023-04-15T00:32:38.106Z,3.53
2023-04-15T00:37:45.928Z,3.44
2023-04-15T00:42:49.220Z,3.23
2023-04-15T00:47:55.252Z,2.93
2023-04-15T00:52:57.021Z,2.86
2023-04-15T00:58:09.625Z,2.92
2023-04-15T01:03:11.439Z,3.10
2023-04-15T01:08:13.203Z,3.05
2023-04-15T01:13:16.133Z,3.01
2023-04-15T01:18:18.013Z,3.00
2023-04-15T01:23:20.124Z,2.99
2023-04-15T01:28:27.445Z,2.95
2023-04-15T01:33:31.501Z,2.83
2023-04-15T01:38:33.362Z,2.62
2023-04-15T01:43:37.770Z,2.55
2023-04-15T01:48:39.788Z,2.59
2023-04-15T01:53:41.442Z,2.62
2023-04-15T01:58:45.055Z,2.68
2023-04-15T02:03:47.108Z,2.72
2023-04-15T02:08:50.271Z,2.75
2023-04-15T02:13:55.706Z,2.97
2023-04-15T02:18:57.302Z,3.03
2023-04-15T02:23:58.956Z,3.11
2023-04-15T02:29:02.077Z,3.02
2023-04-15T02:34:05.662Z,2.93
2023-04-15T02:39:09.889Z,2.87
2023-04-15T02:44:12.928Z,2.80
2023-04-15T02:49:14.723Z,2.79
2023-04-15T02:54:20.339Z,2.64
2023-04-15T02:59:23.689Z,2.71
2023-04-15T03:04:27.232Z,2.70
2023-04-15T03:09:36.611Z,2.75
2023-04-15T03:14:43.126Z,2.70
2023-04-15T03:19:44.843Z,2.53
2023-04-15T03:24:50.087Z,2.49
2023-04-15T03:29:53.234Z,2.58
2023-04-15T03:34:58.929Z,2.38
2023-04-15T03:40:02.612Z,2.37
2023-04-15T03:45:09.690Z,2.46
2023-04-15T03:50:14.064Z,2.58
2023-04-15T03:55:23.842Z,2.41
2023-04-15T04:00:26.831Z,2.20
2023-04-15T04:05:28.477Z,2.30
2023-04-15T04:10:33.239Z,2.86
2023-04-15T04:15:37.820Z,2.92
2023-04-15T04:20:39.554Z,2.84
2023-04-15T04:25:44.275Z,2.66
2023-04-15T04:30:49.895Z,2.56
2023-04-15T04:35:51.482Z,2.64
2023-04-15T04:40:53.067Z,2.79
2023-04-15T04:45:56.085Z,2.92
2023-04-15T04:50:57.848Z,2.64
2023-04-15T04:55:59.478Z,2.58
2023-04-15T05:01:02.505Z,2.81
2023-04-15T05:06:04.243Z,3.07
2023-04-15T05:11:05.915Z,3.30
2023-04-15T05:16:11.639Z,3.49
2023-04-15T05:21:15.220Z,3.75
2023-04-15T05:26:16.883Z,3.67
2023-04-15T05:31:23.049Z,4.03
2023-04-15T05:36:24.657Z,4.01
2023-04-15T05:41:28.807Z,3.97
2023-04-15T05:46:34.689Z,3.90
2023-04-15T05:51:36.769Z,3.78
2023-04-15T05:56:43.017Z,3.82
2023-04-15T06:01:48.572Z,3.86
2023-04-15T06:06:51.932Z,4.14
2023-04-15T06:11:53.530Z,4.44
2023-04-15T06:16:57.988Z,4.94
2023-04-15T06:21:59.644Z,5.47
2023-04-15T06:27:07.186Z,6.35
2023-04-15T06:32:13.394Z,7.35
2023-04-15T06:37:16.796Z,8.18
2023-04-15T06:42:21.222Z,8.85
2023-04-15T06:47:26.089Z,9.46
2023-04-15T06:52:27.744Z,9.65
2023-04-15T06:57:29.693Z,9.90
2023-04-15T07:02:32.847Z,10.99
2023-04-15T07:07:34.635Z,12.40
2023-04-15T07:12:36.294Z,11.58
2023-04-15T07:17:41.909Z,11.99
2023-04-15T07:22:43.602Z,13.04
2023-04-15T07:27:45.273Z,13.53
2023-04-15T07:32:52.214Z,13.69
2023-04-15T07:37:56.868Z,14.28
2023-04-15T07:42:58.567Z,14.71
2023-04-15T07:48:04.805Z,14.92
2023-04-15T07:53:07.000Z,15.36
2023-04-15T07:58:11.110Z,15.96
2023-04-15T08:03:17.305Z,15.74
2023-04-15T08:08:18.999Z,16.44
2023-04-15T08:13:20.633Z,16.36
2023-04-15T08:18:26.293Z,15.89
2023-04-15T08:23:27.897Z,16.25
2023-04-15T08:28:32.656Z,15.96
2023-04-15T08:33:38.224Z,14.56
2023-04-15T08:38:39.889Z,14.73
2023-04-15T08:43:51.926Z,15.64
2023-04-15T08:49:03.394Z,15.85
2023-04-15T08:54:10.456Z,15.11
2023-04-15T08:59:12.129Z,15.42
2023-04-15T09:04:15.201Z,15.57
2023-04-15T09:09:19.467Z,15.14
2023-04-15T09:14:24.048Z,14.49
2023-04-15T09:19:31.757Z,14.83
2023-04-15T09:24:37.449Z,14.50
2023-04-15T09:29:44.289Z,14.90
2023-04-15T09:34:49.214Z,15.25
2023-04-15T09:39:51.971Z,15.30
2023-04-15T09:44:53.903Z,15.31
2023-04-15T09:49:57.700Z,15.78
2023-04-15T09:55:02.877Z,15.40
2023-04-15T10:00:13.760Z,15.55
2023-04-15T10:05:20.682Z,15.22
2023-04-15T10:10:25.697Z,15.19
2023-04-15T10:15:29.956Z,15.36
2023-04-15T10:20:33.873Z,15.21
2023-04-15T10:25:47.221Z,13.51
2023-04-15T10:30:51.382Z,13.09
2023-04-15T10:35:57.800Z,12.73
2023-04-15T10:41:12.657Z,12.70
2023-04-15T10:46:14.699Z,12.50
2023-04-15T10:51:31.620Z,12.59
2023-04-15T10:56:35.989Z,13.08
2023-04-15T11:01:56.810Z,13.24
2023-04-15T11:07:06.925Z,13.56
2023-04-15T11:12:15.135Z,13.22
2023-04-15T11:17:27.382Z,13.68
2023-04-15T11:22:30.428Z,13.17
2023-04-15T11:27:37.709Z,12.91
2023-04-15T11:32:55.668Z,12.97
2023-04-15T11:38:02.498Z,12.94
2023-04-15T11:43:10.020Z,12.98
2023-04-15T11:48:14.272Z,13.18
2023-04-15T11:53:18.744Z,13.25
2023-04-15T11:58:24.000Z,13.22
2023-04-15T12:03:29.823Z,12.66
2023-04-15T12:09:14.322Z,12.00
2023-04-15T12:14:24.707Z,11.89
2023-04-15T12:19:30.599Z,11.75
2023-04-15T12:24:33.055Z,11.50
2023-04-15T12:29:41.306Z,11.60
2023-04-15T12:34:52.078Z,11.60
2023-04-15T12:39:53.789Z,11.44
2023-04-15T12:44:58.068Z,11.79
2023-04-15T12:50:02.817Z,12.19
2023-04-15T12:55:07.805Z,12.01
2023-04-15T13:00:14.911Z,12.02
2023-04-15T13:05:20.166Z,11.81
2023-04-15T13:10:21.947Z,11.40
2023-04-15T13:15:29.654Z,10.86
2023-04-15T13:20:35.176Z,10.81
2023-04-15T13:25:38.652Z,10.75
2023-04-15T13:30:41.760Z,10.62
2023-04-15T13:35:47.544Z,10.43
2023-04-15T13:40:49.151Z,10.39
2023-04-15T13:45:52.203Z,10.24
2023-04-15T13:51:00.349Z,10.28
2023-04-15T13:56:02.139Z,10.03
2023-04-15T14:01:07.737Z,9.97
2023-04-15T14:06:16.855Z,9.89
2023-04-15T14:11:21.329Z,9.84
2023-04-15T14:16:24.552Z,9.75
2023-04-15T14:21:33.721Z,9.56
2023-04-15T14:26:35.401Z,9.60
2023-04-15T14:31:40.308Z,9.56
2023-04-15T14:36:44.896Z,9.51
2023-04-15T14:41:51.324Z,9.41
2023-04-15T14:46:54.368Z,9.35
2023-04-15T14:51:57.886Z,9.25
2023-04-15T14:56:59.575Z,9.25
2023-04-15T15:02:10.484Z,9.26
2023-04-15T15:07:16.913Z,9.09
2023-04-15T15:12:23.802Z,9.08
2023-04-15T15:17:28.167Z,9.04
2023-04-15T15:22:31.522Z,9.12
2023-04-15T15:27:51.045Z,8.95
2023-04-15T15:32:57.126Z,8.81
2023-04-15T15:37:59.736Z,8.74
2023-04-15T15:43:04.086Z,8.81
2023-04-15T15:48:10.930Z,8.81
2023-04-15T15:53:15.783Z,8.70
2023-04-15T15:58:17.869Z,8.64
2023-04-15T16:03:23.630Z,8.58
2023-04-15T16:08:31.511Z,8.68
2023-04-15T16:13:34.873Z,8.59
2023-04-15T16:18:38.184Z,8.55
2023-04-15T16:23:44.862Z,8.56
2023-04-15T16:28:46.549Z,8.56
2023-04-15T16:33:49.604Z,8.49
2023-04-15T16:38:54.009Z,8.45
2023-04-15T16:43:58.598Z,8.35
2023-04-15T16:49:06.561Z,8.31
2023-04-15T16:54:08.653Z,8.28
2023-04-15T16:59:11.807Z,8.27
2023-04-15T17:04:20.352Z,8.18
2023-04-15T17:09:27.777Z,8.16
2023-04-15T17:14:32.555Z,8.14
2023-04-15T17:19:35.583Z,8.14
2023-04-15T17:24:40.162Z,8.13
2023-04-15T17:29:44.294Z,8.11
2023-04-15T17:34:57.179Z,8.12
2023-04-15T17:39:58.887Z,8.15
2023-04-15T17:45:00.572Z,8.13
2023-04-15T17:50:03.828Z,8.11
2023-04-15T17:55:07.226Z,8.13
2023-04-15T18:00:22.429Z,8.13
2023-04-15T18:05:33.810Z,8.10
2023-04-15T18:10:35.948Z,8.11
2023-04-15T18:15:39.305Z,8.17
2023-04-15T18:20:45.539Z,8.21
2023-04-15T18:25:50.749Z,8.16
2023-04-15T18:30:52.386Z,8.09
2023-04-15T18:35:58.468Z,8.09
2023-04-15T18:41:05.074Z,8.06
2023-04-15T18:46:07.207Z,8.03
2023-04-15T18:51:16.404Z,7.99
2023-04-15T18:56:23.799Z,8.03
2023-04-15T19:01:25.550Z,8.10
2023-04-15T19:06:41.007Z,8.16
2023-04-15T19:11:48.902Z,8.18
2023-04-15T19:16:59.723Z,8.15
2023-04-15T19:22:02.938Z,8.14
2023-04-15T19:27:04.663Z,8.16
2023-04-15T19:32:09.260Z,8.12
2023-04-15T19:37:17.940Z,8.14
2023-04-15T19:42:19.557Z,8.18
2023-04-15T19:47:21.375Z,8.22
2023-04-15T19:52:24.419Z,8.18
2023-04-15T19:57:26.183Z,8.20
2023-04-15T20:02:29.118Z,8.19
2023-04-15T20:07:32.214Z,8.13
2023-04-15T20:12:51.301Z,8.18
2023-04-15T20:17:56.545Z,8.21
2023-04-15T20:23:02.663Z,8.20
2023-04-15T20:28:06.968Z,8.30
2023-04-15T20:33:13.701Z,8.27
2023-04-15T20:38:16.886Z,8.27
2023-04-15T20:43:18.540Z,8.28
2023-04-15T20:48:20.185Z,8.22
2023-04-15T20:53:24.379Z,8.24
2023-04-15T20:58:28.968Z,8.24
2023-04-15T21:03:30.894Z,8.33
2023-04-15T21:08:34.044Z,8.33
2023-04-15T21:13:38.478Z,8.32
2023-04-15T21:18:44.570Z,8.26
2023-04-15T21:23:47.626Z,8.29
2023-04-15T21:28:49.666Z,8.34
2023-04-15T21:33:54.088Z,8.33
2023-04-15T21:39:02.171Z,8.26
2023-04-15T21:44:06.038Z,8.16
2023-04-15T21:49:08.267Z,8.24
2023-04-15T21:54:12.853Z,8.23
2023-04-15T21:59:16.217Z,8.20
2023-04-15T22:04:17.958Z,8.22
2023-04-15T22:09:24.085Z,8.16
2023-04-15T22:14:25.809Z,8.13
2023-04-15T22:19:27.492Z,8.10
2023-04-15T22:24:39.976Z,8.12
2023-04-15T22:29:42.290Z,8.08
2023-04-15T22:34:43.928Z,8.07
2023-04-15T22:39:49.824Z,8.11
2023-04-15T22:44:57.663Z,7.96
2023-04-15T22:50:10.297Z,7.98
2023-04-15T22:55:16.551Z,8.00
2023-04-15T23:00:23.851Z,8.06
2023-04-15T23:05:25.685Z,8.02
2023-04-15T23:10:31.473Z,8.09
2023-04-15T23:15:38.877Z,8.10
2023-04-15T23:20:44.954Z,8.15
2023-04-15T23:25:50.567Z,8.10
2023-04-15T23:30:52.265Z,8.14
2023-04-15T23:35:57.001Z,8.27
2023-04-15T23:41:01.711Z,8.24
2023-04-15T23:46:03.484Z,8.20
2023-04-15T23:51:07.643Z,8.22
2023-04-15T23:56:12.632Z,8.23
